Capel Curig, United Kingdom
Current Conditions -  °F | °C
As of 7:50 AM on Tuesday 21 Oct 2014 (Local Time) from EGOV Reporting Station
Few Clouds Few Clouds  
Wind Chill: 52°   Ceiling: Unl
Heat Index: 52°   Visibility: 6mi
Dew Point: 43°   Wind: 36mph
Humidity: 71%   Direction: 280°W
Pressure: 29.56"   Gusts: 49mph
Location:  53.1°N, 3.93°W
Report Text: EGOV 210650Z 28031G43KT 9999 FEW020 11/06 Q1001 BLU NOSIG
Loading
Personal Weather Stations






























Interactive Weather Map
Tropical Storm Tracking
New forecast layout! Learn more

10-Day Weather Forecast

Advertisements
Track Severe Weather on mobile